createdAt,value
2023-05-14T00:01:47.726Z,9.48
2023-05-14T00:04:16.763Z,9.52
2023-05-14T00:06:45.765Z,9.57
2023-05-14T00:09:15.112Z,9.48
2023-05-14T00:11:44.057Z,9.20
2023-05-14T00:14:12.983Z,10.07
2023-05-14T00:16:42.078Z,9.98
2023-05-14T00:19:11.411Z,9.85
2023-05-14T00:21:40.583Z,9.63
2023-05-14T00:24:09.603Z,9.13
2023-05-14T00:26:38.514Z,9.13
2023-05-14T00:29:07.512Z,7.97
2023-05-14T00:31:36.617Z,9.13
2023-05-14T00:34:05.721Z,7.70
2023-05-14T00:36:34.716Z,8.82
2023-05-14T00:39:03.778Z,8.38
2023-05-14T00:41:33.089Z,8.45
2023-05-14T00:44:02.184Z,8.15
2023-05-14T00:46:31.205Z,8.38
2023-05-14T00:49:01.135Z,7.93
2023-05-14T00:51:30.240Z,7.03
2023-05-14T00:53:59.165Z,7.22
2023-05-14T00:56:29.263Z,7.78
2023-05-14T00:58:58.234Z,6.78
2023-05-14T01:01:29.823Z,6.32
2023-05-14T01:03:59.676Z,7.22
2023-05-14T01:07:06.092Z,6.68
2023-05-14T01:10:05.646Z,6.55
2023-05-14T01:12:54.817Z,6.47
2023-05-14T01:15:28.413Z,12.52
2023-05-14T01:18:10.533Z,6.18
2023-05-14T01:20:39.642Z,5.45
2023-05-14T01:23:08.588Z,11.55
2023-05-14T01:25:38.601Z,11.82
2023-05-14T01:28:30.898Z,6.32
2023-05-14T01:31:09.651Z,5.60
2023-05-14T01:33:40.513Z,5.57
2023-05-14T01:36:10.053Z,8.85
2023-05-14T01:38:40.879Z,7.30
2023-05-14T01:41:09.993Z,4.43
2023-05-14T01:43:39.894Z,4.32
2023-05-14T01:46:08.925Z,4.63
2023-05-14T01:48:39.024Z,4.35
2023-05-14T01:51:08.134Z,4.35
2023-05-14T01:53:37.080Z,4.30
2023-05-14T01:56:06.395Z,4.80
2023-05-14T01:58:35.410Z,4.18
2023-05-14T02:01:04.549Z,3.90
2023-05-14T02:03:33.698Z,4.30
2023-05-14T02:06:02.697Z,9.75
2023-05-14T02:08:31.751Z,7.70
2023-05-14T02:11:00.742Z,5.47
2023-05-14T02:13:29.698Z,7.43
2023-05-14T02:15:58.806Z,4.53
2023-05-14T02:18:27.899Z,4.20
2023-05-14T02:20:57.036Z,4.57
2023-05-14T02:23:37.907Z,4.15
2023-05-14T02:26:11.441Z,4.25
2023-05-14T02:28:40.554Z,4.38
2023-05-14T02:31:09.580Z,4.13
2023-05-14T02:33:38.712Z,3.67
2023-05-14T02:36:07.928Z,4.32
2023-05-14T02:38:37.032Z,4.15
2023-05-14T02:41:06.022Z,4.28
2023-05-14T02:43:35.004Z,4.18
2023-05-14T02:46:04.062Z,4.00
2023-05-14T02:48:33.296Z,4.07
2023-05-14T02:51:03.837Z,4.55
2023-05-14T02:53:32.842Z,4.50
2023-05-14T02:56:02.060Z,4.50
2023-05-14T02:58:31.204Z,4.45
2023-05-14T03:01:00.268Z,4.07
2023-05-14T03:03:32.088Z,4.63
2023-05-14T03:06:01.619Z,4.22
2023-05-14T03:08:30.587Z,4.28
2023-05-14T03:10:59.626Z,4.20
2023-05-14T03:13:28.595Z,5.50
2023-05-14T03:15:58.141Z,3.72
2023-05-14T03:18:29.525Z,4.32
2023-05-14T03:20:58.909Z,4.32
2023-05-14T03:23:27.896Z,4.05
2023-05-14T03:25:57.920Z,5.57
2023-05-14T03:28:27.244Z,3.97
2023-05-14T03:30:56.313Z,4.82
2023-05-14T03:33:25.447Z,5.30
2023-05-14T03:35:54.468Z,4.25
2023-05-14T03:38:23.496Z,4.80
2023-05-14T03:40:52.501Z,4.55
2023-05-14T03:43:21.447Z,4.43
2023-05-14T03:45:53.541Z,4.28
2023-05-14T03:48:22.698Z,4.13
2023-05-14T03:50:52.462Z,4.38
2023-05-14T03:53:21.732Z,4.63
2023-05-14T03:55:51.024Z,4.63
2023-05-14T03:58:19.983Z,4.15
2023-05-14T04:00:49.177Z,6.18
2023-05-14T04:03:18.400Z,4.40
2023-05-14T04:05:47.514Z,4.85
2023-05-14T04:08:16.501Z,4.63
2023-05-14T04:10:45.572Z,5.10
2023-05-14T04:13:14.548Z,5.45
2023-05-14T04:15:43.516Z,4.45
2023-05-14T04:18:12.648Z,3.83
2023-05-14T04:20:41.891Z,4.97
2023-05-14T04:23:10.901Z,5.43
2023-05-14T04:25:39.884Z,4.57
2023-05-14T04:28:12.631Z,9.23
2023-05-14T04:30:41.778Z,3.90
2023-05-14T04:33:10.749Z,4.50
2023-05-14T04:35:39.873Z,4.18
2023-05-14T04:38:08.936Z,4.13
2023-05-14T04:40:37.976Z,5.25
2023-05-14T04:43:07.414Z,4.00
2023-05-14T04:45:36.750Z,5.53
2023-05-14T04:48:08.997Z,4.25
2023-05-14T04:50:38.043Z,5.18
2023-05-14T04:53:07.104Z,4.72
2023-05-14T04:55:36.146Z,7.90
2023-05-14T04:58:05.164Z,6.90
2023-05-14T05:00:34.710Z,3.47
2023-05-14T05:03:03.812Z,3.80
2023-05-14T05:05:32.945Z,6.63
2023-05-14T05:08:02.004Z,5.75
2023-05-14T05:10:31.021Z,4.43
2023-05-14T05:12:59.999Z,6.35
2023-05-14T05:15:29.003Z,7.60
2023-05-14T05:17:58.076Z,7.63
2023-05-14T05:20:29.576Z,5.78
2023-05-14T05:22:58.586Z,4.43
2023-05-14T05:25:27.703Z,3.35
2023-05-14T05:27:56.773Z,4.28
2023-05-14T05:30:26.006Z,3.42
2023-05-14T05:32:55.317Z,3.70
2023-05-14T05:35:24.414Z,3.70
2023-05-14T05:37:53.494Z,4.40
2023-05-14T05:40:22.657Z,4.05
2023-05-14T05:42:52.111Z,3.42
2023-05-14T05:45:21.101Z,3.65
2023-05-14T05:47:50.290Z,3.83
2023-05-14T05:50:19.973Z,3.58
2023-05-14T05:52:49.160Z,3.97
2023-05-14T05:55:18.163Z,4.63
2023-05-14T05:57:47.173Z,3.70
2023-05-14T06:00:16.745Z,3.55
2023-05-14T06:02:46.256Z,3.75
2023-05-14T06:05:15.398Z,4.18
2023-05-14T06:07:44.393Z,3.63
2023-05-14T06:10:13.443Z,3.78
2023-05-14T06:12:42.505Z,3.88
2023-05-14T06:15:12.535Z,3.35
2023-05-14T06:17:41.655Z,3.90
2023-05-14T06:20:11.155Z,4.10
2023-05-14T06:22:40.164Z,3.75
2023-05-14T06:25:09.702Z,3.80
2023-05-14T06:27:38.734Z,3.40
2023-05-14T06:30:08.609Z,3.63
2023-05-14T06:32:37.618Z,4.00
2023-05-14T06:35:07.417Z,3.60
2023-05-14T06:37:36.488Z,3.53
2023-05-14T06:40:06.281Z,3.20
2023-05-14T06:42:35.413Z,3.55
2023-05-14T06:45:04.585Z,3.47
2023-05-14T06:47:33.707Z,3.78
2023-05-14T06:50:03.431Z,3.72
2023-05-14T06:52:32.470Z,3.50
2023-05-14T06:55:01.516Z,3.30
2023-05-14T06:57:30.956Z,3.10
2023-05-14T07:00:00.065Z,3.60
2023-05-14T07:02:29.138Z,3.28
2023-05-14T07:04:58.283Z,3.25
2023-05-14T07:07:27.312Z,2.90
2023-05-14T07:09:56.578Z,2.78
2023-05-14T07:12:25.765Z,3.10
2023-05-14T07:14:54.801Z,3.13
2023-05-14T07:17:23.922Z,4.45
2023-05-14T07:19:53.002Z,3.22
2023-05-14T07:22:22.075Z,4.40
2023-05-14T07:24:51.473Z,3.00
2023-05-14T07:27:20.709Z,3.08
2023-05-14T07:29:50.864Z,3.92
2023-05-14T07:32:19.879Z,2.58
2023-05-14T07:34:48.937Z,3.15
2023-05-14T07:37:17.926Z,3.00
2023-05-14T07:39:47.062Z,3.35
2023-05-14T07:42:24.954Z,3.38
2023-05-14T07:45:03.946Z,3.08
2023-05-14T07:47:33.222Z,3.13
2023-05-14T07:50:02.425Z,3.15
2023-05-14T07:52:31.833Z,3.45
2023-05-14T07:55:02.452Z,3.03
2023-05-14T07:57:31.662Z,3.22
2023-05-14T08:00:00.699Z,3.15
2023-05-14T08:02:30.013Z,3.50
2023-05-14T08:04:59.629Z,3.17
2023-05-14T08:07:30.494Z,3.53
2023-05-14T08:09:59.489Z,2.90
2023-05-14T08:12:28.457Z,3.78
2023-05-14T08:14:57.728Z,4.00
2023-05-14T08:17:26.803Z,3.15
2023-05-14T08:19:56.018Z,3.05
2023-05-14T08:22:25.013Z,3.28
2023-05-14T08:24:53.963Z,3.72
2023-05-14T08:27:24.144Z,3.35
2023-05-14T08:29:53.258Z,3.40
2023-05-14T08:32:24.193Z,3.72
2023-05-14T08:34:53.531Z,3.40
2023-05-14T08:37:22.677Z,3.28
2023-05-14T08:39:51.898Z,3.28
2023-05-14T08:42:23.241Z,2.92
2023-05-14T08:44:59.137Z,3.22
2023-05-14T08:47:28.742Z,3.70
2023-05-14T08:50:08.549Z,3.65
2023-05-14T08:52:37.590Z,3.25
2023-05-14T08:55:08.028Z,3.40
2023-05-14T08:57:37.456Z,3.17
2023-05-14T09:00:13.061Z,3.22
2023-05-14T09:02:43.544Z,3.05
2023-05-14T09:05:13.542Z,3.42
2023-05-14T09:07:42.692Z,4.35
2023-05-14T09:10:11.962Z,3.28
2023-05-14T09:12:40.982Z,3.60
2023-05-14T09:15:10.202Z,3.53
2023-05-14T09:17:39.278Z,4.05
2023-05-14T09:20:09.575Z,3.50
2023-05-14T09:22:40.042Z,3.92
2023-05-14T09:25:13.217Z,3.10
2023-05-14T09:27:42.233Z,3.38
2023-05-14T09:30:13.519Z,3.50
2023-05-14T09:32:48.491Z,3.05
2023-05-14T09:35:19.705Z,3.30
2023-05-14T09:37:51.152Z,3.40
2023-05-14T09:40:22.381Z,5.40
2023-05-14T09:42:52.658Z,3.35
2023-05-14T09:45:21.660Z,4.20
2023-05-14T09:47:50.923Z,3.47
2023-05-14T09:50:20.060Z,3.20
2023-05-14T09:52:49.481Z,4.18
2023-05-14T09:55:18.826Z,3.33
2023-05-14T09:57:48.137Z,3.60
2023-05-14T10:00:17.395Z,3.10
2023-05-14T10:02:48.580Z,3.30
2023-05-14T10:05:17.933Z,3.40
2023-05-14T10:07:49.716Z,3.60
2023-05-14T10:10:22.008Z,3.50
2023-05-14T10:12:58.687Z,3.40
2023-05-14T10:15:50.093Z,3.63
2023-05-14T10:18:24.193Z,3.63
2023-05-14T10:21:09.322Z,3.47
2023-05-14T10:23:39.575Z,3.70
2023-05-14T10:26:10.397Z,3.80
2023-05-14T10:28:39.554Z,3.60
2023-05-14T10:31:11.583Z,3.47
2023-05-14T10:33:53.888Z,3.85
2023-05-14T10:36:24.032Z,3.60
2023-05-14T10:38:58.728Z,3.75
2023-05-14T10:41:28.110Z,3.70
2023-05-14T10:44:00.520Z,4.20
2023-05-14T10:46:29.754Z,3.20
2023-05-14T10:48:59.084Z,3.55
2023-05-14T10:51:28.241Z,3.70
2023-05-14T10:53:58.008Z,3.95
2023-05-14T10:56:27.000Z,3.78
2023-05-14T10:59:01.433Z,3.42
2023-05-14T11:01:31.137Z,4.03
2023-05-14T11:04:00.503Z,3.80
2023-05-14T11:06:30.060Z,3.85
2023-05-14T11:09:01.194Z,3.80
2023-05-14T11:11:30.839Z,3.72
2023-05-14T11:14:00.137Z,3.88
2023-05-14T11:16:32.312Z,3.95
2023-05-14T11:19:06.551Z,3.53
2023-05-14T11:21:35.791Z,4.68
2023-05-14T11:24:06.597Z,4.50
2023-05-14T11:26:36.139Z,4.00
2023-05-14T11:29:06.237Z,5.57
2023-05-14T11:31:35.262Z,13.73
2023-05-14T11:34:06.291Z,16.13
2023-05-14T11:36:37.680Z,13.38
2023-05-14T11:39:06.697Z,5.00
2023-05-14T11:41:35.708Z,4.10
2023-05-14T11:44:06.779Z,5.50
2023-05-14T11:46:37.533Z,4.27
2023-05-14T11:49:08.020Z,4.05
2023-05-14T11:51:38.422Z,5.03
2023-05-14T11:54:07.540Z,4.25
2023-05-14T11:56:36.691Z,3.95
2023-05-14T11:59:05.722Z,7.00
2023-05-14T12:01:41.022Z,3.88
2023-05-14T12:04:11.141Z,3.92
2023-05-14T12:06:41.686Z,4.13
2023-05-14T12:09:13.826Z,5.43
2023-05-14T12:11:42.809Z,3.80
2023-05-14T12:14:18.169Z,5.28
2023-05-14T12:16:48.130Z,4.47
2023-05-14T12:19:19.157Z,4.97
2023-05-14T12:21:52.155Z,4.32
2023-05-14T12:24:21.455Z,4.87
2023-05-14T12:26:52.061Z,4.45
2023-05-14T12:29:23.248Z,4.22
2023-05-14T12:31:52.831Z,4.97
2023-05-14T12:34:21.911Z,4.20
2023-05-14T12:36:51.120Z,4.72
2023-05-14T12:39:20.122Z,3.63
2023-05-14T12:41:50.170Z,4.93
2023-05-14T12:44:19.737Z,4.68
2023-05-14T12:46:49.528Z,5.07
2023-05-14T12:49:18.552Z,4.93
2023-05-14T12:51:48.258Z,5.57
2023-05-14T12:54:17.340Z,5.55
2023-05-14T12:56:46.958Z,5.60
2023-05-14T12:59:16.041Z,6.85
2023-05-14T13:01:45.063Z,5.93
2023-05-14T13:04:15.171Z,5.68
2023-05-14T13:06:44.452Z,6.10
2023-05-14T13:09:15.549Z,6.20
2023-05-14T13:11:44.546Z,6.13
2023-05-14T13:14:13.506Z,5.65
2023-05-14T13:16:42.524Z,6.18
2023-05-14T13:19:11.731Z,6.30
2023-05-14T13:21:40.883Z,6.38
2023-05-14T13:24:11.296Z,6.72
2023-05-14T13:26:40.353Z,7.88
2023-05-14T13:29:09.308Z,8.82
2023-05-14T13:31:38.436Z,6.57
2023-05-14T13:34:07.495Z,5.43
2023-05-14T13:36:40.687Z,6.30
2023-05-14T13:39:09.809Z,6.03
2023-05-14T13:41:39.991Z,6.40
2023-05-14T13:44:09.208Z,6.55
2023-05-14T13:46:38.597Z,6.32
2023-05-14T13:49:07.706Z,7.43
2023-05-14T13:51:36.782Z,6.40
2023-05-14T13:54:05.882Z,6.07
2023-05-14T13:56:35.040Z,5.30
2023-05-14T13:59:04.947Z,6.28
2023-05-14T14:01:34.252Z,5.80
2023-05-14T14:04:03.427Z,5.32
2023-05-14T14:06:34.456Z,5.55
2023-05-14T14:09:03.529Z,5.75
2023-05-14T14:11:32.657Z,5.75
2023-05-14T14:14:01.789Z,5.95
2023-05-14T14:16:30.911Z,5.82
2023-05-14T14:19:00.484Z,6.05
2023-05-14T14:21:29.577Z,6.28
2023-05-14T14:23:58.787Z,5.45
2023-05-14T14:26:29.069Z,5.25
2023-05-14T14:28:58.158Z,5.95
2023-05-14T14:31:27.243Z,5.32
2023-05-14T14:33:56.318Z,5.68
2023-05-14T14:36:25.314Z,6.03
2023-05-14T14:38:54.319Z,5.53
2023-05-14T14:41:23.516Z,5.80
2023-05-14T14:43:52.626Z,6.05
2023-05-14T14:46:21.650Z,6.47
2023-05-14T14:48:50.676Z,6.00
2023-05-14T14:51:19.805Z,5.70
2023-05-14T14:53:49.043Z,6.45
2023-05-14T14:56:18.102Z,5.97
2023-05-14T14:58:47.156Z,6.38
2023-05-14T15:01:16.242Z,5.72
2023-05-14T15:03:46.812Z,5.70
2023-05-14T15:06:15.897Z,6.10
2023-05-14T15:08:44.884Z,6.35
2023-05-14T15:11:14.194Z,6.22
2023-05-14T15:13:44.118Z,5.95
2023-05-14T15:16:13.823Z,5.38
2023-05-14T15:18:43.001Z,5.63
2023-05-14T15:21:12.012Z,7.50
2023-05-14T15:23:41.021Z,6.43
2023-05-14T15:26:09.969Z,5.70
2023-05-14T15:28:38.987Z,6.25
2023-05-14T15:31:08.509Z,5.88
2023-05-14T15:33:38.008Z,5.45
2023-05-14T15:36:07.407Z,5.60
2023-05-14T15:38:36.487Z,6.00
2023-05-14T15:41:05.583Z,6.10
2023-05-14T15:43:34.599Z,6.10
2023-05-14T15:46:03.700Z,7.18
2023-05-14T15:48:32.929Z,6.65
2023-05-14T15:51:01.918Z,5.75
2023-05-14T15:53:31.171Z,6.55
2023-05-14T15:56:00.183Z,6.57
2023-05-14T15:58:29.183Z,6.07
2023-05-14T16:00:58.135Z,5.45
2023-05-14T16:03:27.231Z,4.90
2023-05-14T16:05:57.213Z,5.00
2023-05-14T16:08:26.193Z,5.05
2023-05-14T16:10:55.234Z,6.07
2023-05-14T16:13:24.448Z,4.82
2023-05-14T16:15:53.521Z,4.97
2023-05-14T16:18:23.313Z,4.25
2023-05-14T16:20:52.306Z,3.80
2023-05-14T16:23:21.348Z,4.13
2023-05-14T16:25:50.440Z,4.25
2023-05-14T16:28:19.429Z,5.72
2023-05-14T16:30:48.590Z,4.05
2023-05-14T16:33:17.829Z,4.68
2023-05-14T16:35:46.984Z,4.35
2023-05-14T16:38:16.045Z,4.43
2023-05-14T16:40:45.022Z,4.22
2023-05-14T16:43:14.118Z,4.72
2023-05-14T16:45:43.347Z,4.32
2023-05-14T16:48:12.425Z,4.50
2023-05-14T16:50:41.515Z,4.90
2023-05-14T16:53:10.481Z,4.65
2023-05-14T16:55:39.541Z,4.32
2023-05-14T16:58:08.589Z,4.97
2023-05-14T17:00:37.639Z,4.53
2023-05-14T17:03:07.598Z,4.68
2023-05-14T17:05:37.182Z,5.00
2023-05-14T17:08:06.864Z,4.93
2023-05-14T17:10:36.975Z,4.53
2023-05-14T17:13:07.371Z,5.03
2023-05-14T17:15:38.022Z,4.80
2023-05-14T17:18:07.153Z,5.47
2023-05-14T17:20:36.223Z,8.40
2023-05-14T17:23:05.221Z,7.93
2023-05-14T17:25:34.754Z,4.65
2023-05-14T17:28:03.774Z,4.18
2023-05-14T17:30:32.924Z,4.97
2023-05-14T17:33:02.009Z,4.85
2023-05-14T17:35:31.167Z,4.22
2023-05-14T17:38:00.609Z,4.68
2023-05-14T17:40:29.929Z,4.70
2023-05-14T17:42:59.256Z,4.57
2023-05-14T17:45:34.145Z,4.30
2023-05-14T17:48:08.954Z,4.80
2023-05-14T17:50:37.937Z,4.82
2023-05-14T17:53:07.230Z,4.93
2023-05-14T17:55:43.750Z,4.55
2023-05-14T17:58:14.698Z,4.63
2023-05-14T18:00:44.561Z,5.13
2023-05-14T18:03:15.446Z,6.43
2023-05-14T18:05:44.887Z,4.95
2023-05-14T18:08:14.084Z,5.20
2023-05-14T18:10:43.306Z,4.60
2023-05-14T18:13:12.317Z,4.70
2023-05-14T18:15:41.334Z,5.00
2023-05-14T18:18:10.753Z,4.43
2023-05-14T18:20:40.021Z,4.90
2023-05-14T18:23:09.324Z,5.80
2023-05-14T18:25:38.922Z,4.97
2023-05-14T18:28:08.458Z,4.97
2023-05-14T18:30:37.507Z,5.65
2023-05-14T18:33:07.006Z,5.45
2023-05-14T18:35:36.526Z,5.80
2023-05-14T18:38:05.878Z,4.97
2023-05-14T18:40:36.829Z,4.90
2023-05-14T18:43:05.783Z,4.72
2023-05-14T18:45:34.936Z,4.50
2023-05-14T18:48:04.119Z,5.40
2023-05-14T18:50:33.317Z,6.20
2023-05-14T18:53:02.325Z,5.10
2023-05-14T18:55:31.380Z,4.93
2023-05-14T18:58:00.533Z,4.97
2023-05-14T19:00:29.552Z,5.88
2023-05-14T19:02:58.597Z,5.68
2023-05-14T19:05:27.797Z,5.90
2023-05-14T19:07:57.840Z,5.35
2023-05-14T19:10:26.961Z,5.55
2023-05-14T19:12:56.015Z,5.18
2023-05-14T19:15:25.207Z,5.30
2023-05-14T19:17:55.283Z,5.45
2023-05-14T19:20:24.364Z,4.93
2023-05-14T19:22:53.400Z,4.53
2023-05-14T19:25:22.378Z,4.13
2023-05-14T19:27:52.300Z,4.38
2023-05-14T19:30:22.249Z,4.40
2023-05-14T19:32:51.452Z,4.20
2023-05-14T19:35:20.845Z,4.15
2023-05-14T19:37:49.820Z,3.85
2023-05-14T19:40:18.901Z,4.60
2023-05-14T19:42:47.867Z,4.57
2023-05-14T19:45:16.865Z,3.92
2023-05-14T19:47:46.278Z,4.55
2023-05-14T19:50:15.909Z,4.93
2023-05-14T19:52:44.962Z,4.05
2023-05-14T19:55:13.966Z,4.28
2023-05-14T19:57:42.900Z,4.32
2023-05-14T20:00:12.723Z,4.35
2023-05-14T20:02:44.786Z,4.65
2023-05-14T20:05:13.861Z,4.40
2023-05-14T20:07:43.787Z,5.25
2023-05-14T20:10:13.205Z,8.05
2023-05-14T20:12:42.170Z,7.65
2023-05-14T20:15:11.633Z,8.20
2023-05-14T20:17:41.468Z,7.70
2023-05-14T20:20:11.464Z,8.45
2023-05-14T20:22:41.151Z,9.38
2023-05-14T20:25:11.402Z,8.45
2023-05-14T20:27:40.532Z,9.25
2023-05-14T20:30:10.193Z,8.65
2023-05-14T20:32:39.359Z,8.75
2023-05-14T20:35:08.986Z,8.27
2023-05-14T20:37:38.838Z,8.13
2023-05-14T20:40:11.545Z,8.43
2023-05-14T20:42:40.811Z,8.10
2023-05-14T20:45:10.536Z,9.27
2023-05-14T20:47:39.717Z,8.52
2023-05-14T20:50:09.543Z,8.25
2023-05-14T20:52:38.573Z,8.88
2023-05-14T20:55:08.844Z,8.65
2023-05-14T20:57:37.828Z,9.68
2023-05-14T21:00:10.329Z,8.50
2023-05-14T21:02:39.802Z,9.07
2023-05-14T21:05:09.052Z,10.90
2023-05-14T21:07:38.498Z,9.27
2023-05-14T21:10:09.125Z,9.02
2023-05-14T21:12:38.227Z,9.02
2023-05-14T21:15:07.804Z,8.93
2023-05-14T21:17:36.890Z,9.32
2023-05-14T21:20:06.314Z,8.90
2023-05-14T21:22:35.393Z,8.93
2023-05-14T21:25:04.598Z,8.80
2023-05-14T21:27:33.609Z,9.38
2023-05-14T21:30:02.598Z,8.93
2023-05-14T21:32:31.818Z,9.57
2023-05-14T21:35:00.885Z,8.85
2023-05-14T21:37:29.971Z,9.25
2023-05-14T21:39:58.940Z,9.13
2023-05-14T21:42:27.914Z,9.18
2023-05-14T21:44:56.854Z,9.10
2023-05-14T21:47:25.950Z,9.27
2023-05-14T21:49:55.002Z,8.75
2023-05-14T21:52:24.014Z,9.13
2023-05-14T21:54:53.039Z,9.52
2023-05-14T21:57:22.021Z,8.82
2023-05-14T21:59:51.031Z,9.43
2023-05-14T22:02:20.022Z,9.48
2023-05-14T22:04:49.042Z,8.88
2023-05-14T22:07:18.121Z,9.18
2023-05-14T22:09:47.096Z,5.95
2023-05-14T22:12:16.057Z,5.70
2023-05-14T22:14:45.047Z,6.75
2023-05-14T22:17:14.681Z,6.28
2023-05-14T22:19:43.753Z,6.63
2023-05-14T22:22:12.707Z,6.85
2023-05-14T22:24:41.672Z,6.30
2023-05-14T22:27:10.725Z,7.15
2023-05-14T22:29:39.716Z,6.72
2023-05-14T22:32:09.397Z,6.72
2023-05-14T22:34:39.006Z,6.60
2023-05-14T22:37:08.066Z,6.38
2023-05-14T22:39:37.175Z,7.28
2023-05-14T22:42:06.742Z,11.93
2023-05-14T22:44:37.792Z,7.97
2023-05-14T22:47:07.343Z,9.27
2023-05-14T22:49:36.285Z,8.80
2023-05-14T22:52:05.405Z,9.10
2023-05-14T22:54:34.418Z,9.57
2023-05-14T22:57:03.653Z,8.38
2023-05-14T22:59:32.789Z,7.97
2023-05-14T23:02:01.802Z,6.95
2023-05-14T23:04:30.847Z,7.40
2023-05-14T23:07:00.129Z,8.82
2023-05-14T23:09:29.138Z,9.57
2023-05-14T23:11:58.140Z,8.77
2023-05-14T23:14:27.193Z,8.30
2023-05-14T23:16:56.193Z,7.22
2023-05-14T23:19:25.336Z,8.60
2023-05-14T23:21:54.464Z,9.07
2023-05-14T23:24:23.504Z,8.07
2023-05-14T23:29:34.842Z,10.57
2023-05-14T23:32:04.089Z,9.75
2023-05-14T23:34:33.317Z,9.00
2023-05-14T23:37:02.424Z,8.85
2023-05-14T23:39:31.972Z,8.38
2023-05-14T23:42:01.024Z,9.20
2023-05-14T23:44:30.169Z,10.20
2023-05-14T23:46:59.305Z,8.60
2023-05-14T23:49:28.508Z,7.10
2023-05-14T23:51:58.097Z,7.00
2023-05-14T23:54:27.151Z,7.53
2023-05-14T23:56:56.342Z,7.47
2023-05-14T23:59:25.396Z,7.43
